sensor_id;sensor_type;location;lat;lon;timestamp;P1;durP1;ratioP1;P2;durP2;ratioP2
25327;SDS011;13279;51.300;12.394;2022-12-18T00:01:14;53.50;;;22.27;;
25327;SDS011;13279;51.300;12.394;2022-12-18T00:03:43;51.97;;;19.33;;
25327;SDS011;13279;51.300;12.394;2022-12-18T00:06:10;48.93;;;19.77;;
25327;SDS011;13279;51.300;12.394;2022-12-18T00:08:39;49.90;;;19.33;;
25327;SDS011;13279;51.300;12.394;2022-12-18T00:11:07;54.77;;;20.50;;
25327;SDS011;13279;51.300;12.394;2022-12-18T00:13:36;53.53;;;20.60;;
25327;SDS011;13279;51.300;12.394;2022-12-18T00:16:06;51.20;;;19.93;;
25327;SDS011;13279;51.300;12.394;2022-12-18T00:18:35;46.40;;;18.80;;
25327;SDS011;13279;51.300;12.394;2022-12-18T00:21:04;46.33;;;18.40;;
25327;SDS011;13279;51.300;12.394;2022-12-18T00:23:32;56.93;;;21.37;;
25327;SDS011;13279;51.300;12.394;2022-12-18T00:26:00;49.47;;;19.83;;
25327;SDS011;13279;51.300;12.394;2022-12-18T00:28:29;51.67;;;19.17;;
25327;SDS011;13279;51.300;12.394;2022-12-18T00:30:59;54.47;;;19.80;;
25327;SDS011;13279;51.300;12.394;2022-12-18T00:33:29;48.87;;;18.80;;
25327;SDS011;13279;51.300;12.394;2022-12-18T00:35:59;44.57;;;19.03;;
25327;SDS011;13279;51.300;12.394;2022-12-18T00:38:27;47.47;;;20.50;;
25327;SDS011;13279;51.300;12.394;2022-12-18T00:40:55;52.33;;;17.37;;
25327;SDS011;13279;51.300;12.394;2022-12-18T00:43:22;45.87;;;18.57;;
25327;SDS011;13279;51.300;12.394;2022-12-18T00:45:49;47.53;;;18.73;;
25327;SDS011;13279;51.300;12.394;2022-12-18T00:48:16;49.10;;;18.43;;
25327;SDS011;13279;51.300;12.394;2022-12-18T00:50:46;44.83;;;18.37;;
25327;SDS011;13279;51.300;12.394;2022-12-18T00:53:15;37.10;;;17.37;;
25327;SDS011;13279;51.300;12.394;2022-12-18T00:55:42;55.03;;;18.50;;
25327;SDS011;13279;51.300;12.394;2022-12-18T00:58:11;42.13;;;17.03;;
25327;SDS011;13279;51.300;12.394;2022-12-18T01:00:39;42.50;;;16.97;;
25327;SDS011;13279;51.300;12.394;2022-12-18T01:03:10;40.30;;;16.27;;
25327;SDS011;13279;51.300;12.394;2022-12-18T01:05:42;34.67;;;15.63;;
25327;SDS011;13279;51.300;12.394;2022-12-18T01:08:12;46.03;;;19.30;;
25327;SDS011;13279;51.300;12.394;2022-12-18T01:10:42;43.13;;;17.33;;
25327;SDS011;13279;51.300;12.394;2022-12-18T01:13:09;43.83;;;18.40;;
25327;SDS011;13279;51.300;12.394;2022-12-18T01:15:37;42.33;;;17.70;;
25327;SDS011;13279;51.300;12.394;2022-12-18T01:18:04;46.53;;;17.67;;
25327;SDS011;13279;51.300;12.394;2022-12-18T01:20:32;43.27;;;17.03;;
25327;SDS011;13279;51.300;12.394;2022-12-18T01:22:59;45.93;;;18.03;;
25327;SDS011;13279;51.300;12.394;2022-12-18T01:25:28;33.97;;;16.80;;
25327;SDS011;13279;51.300;12.394;2022-12-18T01:27:56;45.77;;;18.20;;
25327;SDS011;13279;51.300;12.394;2022-12-18T01:30:24;35.17;;;16.73;;
25327;SDS011;13279;51.300;12.394;2022-12-18T01:32:52;39.90;;;15.20;;
25327;SDS011;13279;51.300;12.394;2022-12-18T01:35:19;34.67;;;16.90;;
25327;SDS011;13279;51.300;12.394;2022-12-18T01:37:47;32.47;;;16.07;;
25327;SDS011;13279;51.300;12.394;2022-12-18T01:40:14;45.90;;;17.23;;
25327;SDS011;13279;51.300;12.394;2022-12-18T01:42:43;43.50;;;17.20;;
25327;SDS011;13279;51.300;12.394;2022-12-18T01:48:04;38.67;;;16.30;;
25327;SDS011;13279;51.300;12.394;2022-12-18T01:50:36;52.67;;;18.17;;
25327;SDS011;13279;51.300;12.394;2022-12-18T01:53:07;44.30;;;16.53;;
25327;SDS011;13279;51.300;12.394;2022-12-18T01:55:39;43.27;;;17.03;;
25327;SDS011;13279;51.300;12.394;2022-12-18T01:58:13;37.20;;;16.67;;
25327;SDS011;13279;51.300;12.394;2022-12-18T02:00:41;45.57;;;16.27;;
25327;SDS011;13279;51.300;12.394;2022-12-18T02:03:09;42.13;;;17.20;;
25327;SDS011;13279;51.300;12.394;2022-12-18T02:05:41;40.40;;;17.97;;
25327;SDS011;13279;51.300;12.394;2022-12-18T02:08:13;40.27;;;15.10;;
25327;SDS011;13279;51.300;12.394;2022-12-18T02:10:45;45.37;;;16.83;;
25327;SDS011;13279;51.300;12.394;2022-12-18T02:13:25;38.80;;;15.90;;
25327;SDS011;13279;51.300;12.394;2022-12-18T02:15:58;43.90;;;16.10;;
25327;SDS011;13279;51.300;12.394;2022-12-18T02:18:34;40.07;;;16.40;;
25327;SDS011;13279;51.300;12.394;2022-12-18T02:21:08;33.93;;;15.23;;
25327;SDS011;13279;51.300;12.394;2022-12-18T02:23:45;39.50;;;15.10;;
25327;SDS011;13279;51.300;12.394;2022-12-18T02:26:21;33.07;;;15.50;;
25327;SDS011;13279;51.300;12.394;2022-12-18T02:28:54;35.03;;;15.07;;
25327;SDS011;13279;51.300;12.394;2022-12-18T02:31:28;44.67;;;16.33;;
25327;SDS011;13279;51.300;12.394;2022-12-18T02:34:00;35.53;;;15.33;;
25327;SDS011;13279;51.300;12.394;2022-12-18T02:36:36;36.47;;;16.97;;
25327;SDS011;13279;51.300;12.394;2022-12-18T02:39:09;33.23;;;14.47;;
25327;SDS011;13279;51.300;12.394;2022-12-18T02:41:47;37.67;;;14.87;;
25327;SDS011;13279;51.300;12.394;2022-12-18T02:44:15;39.57;;;14.97;;
25327;SDS011;13279;51.300;12.394;2022-12-18T02:46:42;33.70;;;13.87;;
25327;SDS011;13279;51.300;12.394;2022-12-18T02:49:26;35.20;;;13.57;;
25327;SDS011;13279;51.300;12.394;2022-12-18T02:52:04;33.83;;;14.33;;
25327;SDS011;13279;51.300;12.394;2022-12-18T02:54:38;33.83;;;14.83;;
25327;SDS011;13279;51.300;12.394;2022-12-18T02:57:19;36.77;;;14.27;;
25327;SDS011;13279;51.300;12.394;2022-12-18T02:59:58;36.80;;;15.50;;
25327;SDS011;13279;51.300;12.394;2022-12-18T03:02:33;31.17;;;13.70;;
25327;SDS011;13279;51.300;12.394;2022-12-18T03:05:07;41.03;;;16.30;;
25327;SDS011;13279;51.300;12.394;2022-12-18T03:07:41;34.83;;;15.53;;
25327;SDS011;13279;51.300;12.394;2022-12-18T03:10:13;40.93;;;14.27;;
25327;SDS011;13279;51.300;12.394;2022-12-18T03:12:46;34.03;;;14.73;;
25327;SDS011;13279;51.300;12.394;2022-12-18T03:15:19;36.47;;;15.27;;
25327;SDS011;13279;51.300;12.394;2022-12-18T03:17:59;32.33;;;13.87;;
25327;SDS011;13279;51.300;12.394;2022-12-18T03:20:31;30.30;;;13.70;;
25327;SDS011;13279;51.300;12.394;2022-12-18T03:23:02;31.70;;;14.67;;
25327;SDS011;13279;51.300;12.394;2022-12-18T03:25:35;33.33;;;13.47;;
25327;SDS011;13279;51.300;12.394;2022-12-18T03:28:08;27.40;;;13.07;;
25327;SDS011;13279;51.300;12.394;2022-12-18T03:30:41;35.87;;;14.63;;
25327;SDS011;13279;51.300;12.394;2022-12-18T03:33:12;33.20;;;14.53;;
25327;SDS011;13279;51.300;12.394;2022-12-18T03:35:48;33.67;;;13.97;;
25327;SDS011;13279;51.300;12.394;2022-12-18T03:38:17;31.77;;;14.07;;
25327;SDS011;13279;51.300;12.394;2022-12-18T03:40:51;29.97;;;13.43;;
25327;SDS011;13279;51.300;12.394;2022-12-18T03:43:32;32.03;;;12.43;;
25327;SDS011;13279;51.300;12.394;2022-12-18T03:46:10;32.60;;;13.40;;
25327;SDS011;13279;51.300;12.394;2022-12-18T03:48:44;30.50;;;12.03;;
25327;SDS011;13279;51.300;12.394;2022-12-18T03:51:22;35.47;;;13.50;;
25327;SDS011;13279;51.300;12.394;2022-12-18T03:53:54;28.70;;;12.87;;
25327;SDS011;13279;51.300;12.394;2022-12-18T03:56:30;25.07;;;12.00;;
25327;SDS011;13279;51.300;12.394;2022-12-18T03:59:05;29.40;;;12.27;;
25327;SDS011;13279;51.300;12.394;2022-12-18T04:01:37;33.33;;;13.53;;
25327;SDS011;13279;51.300;12.394;2022-12-18T04:04:11;31.47;;;13.17;;
25327;SDS011;13279;51.300;12.394;2022-12-18T04:06:42;30.40;;;12.53;;
25327;SDS011;13279;51.300;12.394;2022-12-18T04:09:18;28.40;;;11.70;;
25327;SDS011;13279;51.300;12.394;2022-12-18T04:11:47;27.17;;;11.97;;
25327;SDS011;13279;51.300;12.394;2022-12-18T04:14:17;23.13;;;10.13;;
25327;SDS011;13279;51.300;12.394;2022-12-18T04:16:48;29.97;;;11.73;;
25327;SDS011;13279;51.300;12.394;2022-12-18T04:19:20;27.40;;;11.50;;
25327;SDS011;13279;51.300;12.394;2022-12-18T04:21:49;32.30;;;11.60;;
25327;SDS011;13279;51.300;12.394;2022-12-18T04:24:17;25.93;;;12.00;;
25327;SDS011;13279;51.300;12.394;2022-12-18T04:26:55;18.20;;;10.87;;
25327;SDS011;13279;51.300;12.394;2022-12-18T04:29:27;25.93;;;10.53;;
25327;SDS011;13279;51.300;12.394;2022-12-18T04:31:55;24.80;;;10.67;;
25327;SDS011;13279;51.300;12.394;2022-12-18T04:34:26;29.57;;;11.07;;
25327;SDS011;13279;51.300;12.394;2022-12-18T04:36:54;25.17;;;10.23;;
25327;SDS011;13279;51.300;12.394;2022-12-18T04:39:22;19.60;;;9.47;;
25327;SDS011;13279;51.300;12.394;2022-12-18T04:41:52;25.23;;;11.13;;
25327;SDS011;13279;51.300;12.394;2022-12-18T04:44:20;26.07;;;10.27;;
25327;SDS011;13279;51.300;12.394;2022-12-18T04:46:49;26.97;;;9.60;;
25327;SDS011;13279;51.300;12.394;2022-12-18T04:49:17;20.53;;;9.27;;
25327;SDS011;13279;51.300;12.394;2022-12-18T04:51:44;21.73;;;9.63;;
25327;SDS011;13279;51.300;12.394;2022-12-18T04:54:11;24.27;;;10.30;;
25327;SDS011;13279;51.300;12.394;2022-12-18T04:56:39;26.70;;;11.10;;
25327;SDS011;13279;51.300;12.394;2022-12-18T04:59:06;19.87;;;9.67;;
25327;SDS011;13279;51.300;12.394;2022-12-18T05:01:34;27.80;;;10.23;;
25327;SDS011;13279;51.300;12.394;2022-12-18T05:04:03;27.90;;;10.30;;
25327;SDS011;13279;51.300;12.394;2022-12-18T05:06:31;21.13;;;9.83;;
25327;SDS011;13279;51.300;12.394;2022-12-18T05:08:58;21.00;;;9.53;;
25327;SDS011;13279;51.300;12.394;2022-12-18T05:11:26;21.93;;;9.90;;
25327;SDS011;13279;51.300;12.394;2022-12-18T05:13:56;20.90;;;9.17;;
25327;SDS011;13279;51.300;12.394;2022-12-18T05:16:24;18.93;;;8.93;;
25327;SDS011;13279;51.300;12.394;2022-12-18T05:18:52;21.70;;;9.63;;
25327;SDS011;13279;51.300;12.394;2022-12-18T05:21:21;20.53;;;9.43;;
25327;SDS011;13279;51.300;12.394;2022-12-18T05:23:48;22.70;;;9.13;;
25327;SDS011;13279;51.300;12.394;2022-12-18T05:26:16;25.73;;;9.53;;
25327;SDS011;13279;51.300;12.394;2022-12-18T05:28:44;26.27;;;9.50;;
25327;SDS011;13279;51.300;12.394;2022-12-18T05:31:12;18.07;;;8.07;;
25327;SDS011;13279;51.300;12.394;2022-12-18T05:33:40;24.20;;;8.83;;
25327;SDS011;13279;51.300;12.394;2022-12-18T05:36:08;24.20;;;9.53;;
25327;SDS011;13279;51.300;12.394;2022-12-18T05:38:38;18.10;;;8.77;;
25327;SDS011;13279;51.300;12.394;2022-12-18T05:41:06;19.10;;;8.43;;
25327;SDS011;13279;51.300;12.394;2022-12-18T05:43:34;14.70;;;8.77;;
25327;SDS011;13279;51.300;12.394;2022-12-18T05:46:03;21.73;;;8.77;;
25327;SDS011;13279;51.300;12.394;2022-12-18T05:48:32;20.73;;;8.63;;
25327;SDS011;13279;51.300;12.394;2022-12-18T05:51:03;22.33;;;9.33;;
25327;SDS011;13279;51.300;12.394;2022-12-18T05:53:32;16.70;;;8.67;;
25327;SDS011;13279;51.300;12.394;2022-12-18T05:56:02;18.73;;;8.83;;
25327;SDS011;13279;51.300;12.394;2022-12-18T05:58:31;19.80;;;9.47;;
25327;SDS011;13279;51.300;12.394;2022-12-18T06:01:05;19.97;;;8.90;;
25327;SDS011;13279;51.300;12.394;2022-12-18T06:03:34;14.43;;;8.13;;
25327;SDS011;13279;51.300;12.394;2022-12-18T06:06:01;17.27;;;8.70;;
25327;SDS011;13279;51.300;12.394;2022-12-18T06:08:29;21.40;;;9.23;;
25327;SDS011;13279;51.300;12.394;2022-12-18T06:10:57;18.77;;;9.43;;
25327;SDS011;13279;51.300;12.394;2022-12-18T06:13:26;24.10;;;9.87;;
25327;SDS011;13279;51.300;12.394;2022-12-18T06:15:56;17.37;;;9.30;;
25327;SDS011;13279;51.300;12.394;2022-12-18T06:19:29;20.20;;;9.50;;
25327;SDS011;13279;51.300;12.394;2022-12-18T06:21:57;24.10;;;9.97;;
25327;SDS011;13279;51.300;12.394;2022-12-18T06:24:24;20.53;;;10.33;;
25327;SDS011;13279;51.300;12.394;2022-12-18T06:26:54;30.83;;;10.17;;
25327;SDS011;13279;51.300;12.394;2022-12-18T06:29:23;22.40;;;10.23;;
25327;SDS011;13279;51.300;12.394;2022-12-18T06:31:53;18.70;;;10.50;;
25327;SDS011;13279;51.300;12.394;2022-12-18T06:34:21;21.67;;;10.67;;
25327;SDS011;13279;51.300;12.394;2022-12-18T06:36:48;19.30;;;9.07;;
25327;SDS011;13279;51.300;12.394;2022-12-18T06:39:16;19.83;;;9.77;;
25327;SDS011;13279;51.300;12.394;2022-12-18T06:41:44;20.20;;;9.97;;
25327;SDS011;13279;51.300;12.394;2022-12-18T06:44:11;22.47;;;10.20;;
25327;SDS011;13279;51.300;12.394;2022-12-18T06:46:40;19.83;;;8.73;;
25327;SDS011;13279;51.300;12.394;2022-12-18T06:49:07;21.17;;;9.60;;
25327;SDS011;13279;51.300;12.394;2022-12-18T06:51:35;17.93;;;8.90;;
25327;SDS011;13279;51.300;12.394;2022-12-18T06:54:03;22.67;;;9.63;;
25327;SDS011;13279;51.300;12.394;2022-12-18T06:56:30;21.77;;;9.17;;
25327;SDS011;13279;51.300;12.394;2022-12-18T06:58:58;20.03;;;9.20;;
25327;SDS011;13279;51.300;12.394;2022-12-18T07:01:25;16.03;;;8.30;;
25327;SDS011;13279;51.300;12.394;2022-12-18T07:03:55;15.63;;;8.83;;
25327;SDS011;13279;51.300;12.394;2022-12-18T07:06:24;13.77;;;8.03;;
25327;SDS011;13279;51.300;12.394;2022-12-18T07:08:53;14.83;;;8.47;;
25327;SDS011;13279;51.300;12.394;2022-12-18T07:11:23;16.77;;;8.40;;
25327;SDS011;13279;51.300;12.394;2022-12-18T07:13:51;17.87;;;8.73;;
25327;SDS011;13279;51.300;12.394;2022-12-18T07:16:19;16.17;;;9.17;;
25327;SDS011;13279;51.300;12.394;2022-12-18T07:18:48;20.17;;;9.30;;
25327;SDS011;13279;51.300;12.394;2022-12-18T07:21:21;15.80;;;8.43;;
25327;SDS011;13279;51.300;12.394;2022-12-18T07:23:52;19.83;;;8.37;;
25327;SDS011;13279;51.300;12.394;2022-12-18T07:26:20;16.53;;;8.53;;
25327;SDS011;13279;51.300;12.394;2022-12-18T07:28:48;15.23;;;8.13;;
25327;SDS011;13279;51.300;12.394;2022-12-18T07:31:21;18.50;;;8.40;;
25327;SDS011;13279;51.300;12.394;2022-12-18T07:33:52;18.40;;;8.47;;
25327;SDS011;13279;51.300;12.394;2022-12-18T07:36:24;18.20;;;8.03;;
25327;SDS011;13279;51.300;12.394;2022-12-18T07:38:52;18.40;;;7.27;;
25327;SDS011;13279;51.300;12.394;2022-12-18T07:41:20;16.10;;;7.53;;
25327;SDS011;13279;51.300;12.394;2022-12-18T07:43:48;15.03;;;6.63;;
25327;SDS011;13279;51.300;12.394;2022-12-18T07:46:16;17.23;;;6.37;;
25327;SDS011;13279;51.300;12.394;2022-12-18T07:48:43;17.23;;;8.07;;
25327;SDS011;13279;51.300;12.394;2022-12-18T07:51:11;12.37;;;6.77;;
25327;SDS011;13279;51.300;12.394;2022-12-18T07:53:40;13.23;;;6.83;;
25327;SDS011;13279;51.300;12.394;2022-12-18T07:56:09;15.50;;;7.60;;
25327;SDS011;13279;51.300;12.394;2022-12-18T07:58:38;14.93;;;7.30;;
25327;SDS011;13279;51.300;12.394;2022-12-18T08:01:06;12.17;;;7.17;;
25327;SDS011;13279;51.300;12.394;2022-12-18T08:03:35;11.70;;;7.20;;
25327;SDS011;13279;51.300;12.394;2022-12-18T08:06:04;12.83;;;6.67;;
25327;SDS011;13279;51.300;12.394;2022-12-18T08:08:34;13.20;;;7.07;;
25327;SDS011;13279;51.300;12.394;2022-12-18T08:11:03;14.90;;;7.50;;
25327;SDS011;13279;51.300;12.394;2022-12-18T08:13:31;11.10;;;6.23;;
25327;SDS011;13279;51.300;12.394;2022-12-18T08:15:59;11.63;;;6.90;;
25327;SDS011;13279;51.300;12.394;2022-12-18T08:18:28;17.93;;;7.17;;
25327;SDS011;13279;51.300;12.394;2022-12-18T08:21:07;12.20;;;6.00;;
25327;SDS011;13279;51.300;12.394;2022-12-18T08:23:36;9.80;;;6.33;;
25327;SDS011;13279;51.300;12.394;2022-12-18T08:26:06;18.63;;;7.17;;
25327;SDS011;13279;51.300;12.394;2022-12-18T08:28:33;11.73;;;6.43;;
25327;SDS011;13279;51.300;12.394;2022-12-18T08:31:01;13.07;;;6.70;;
25327;SDS011;13279;51.300;12.394;2022-12-18T08:33:29;13.67;;;7.20;;
25327;SDS011;13279;51.300;12.394;2022-12-18T08:35:57;11.37;;;6.53;;
25327;SDS011;13279;51.300;12.394;2022-12-18T08:38:25;14.40;;;6.47;;
25327;SDS011;13279;51.300;12.394;2022-12-18T08:40:57;10.77;;;6.70;;
25327;SDS011;13279;51.300;12.394;2022-12-18T08:43:27;12.37;;;6.47;;
25327;SDS011;13279;51.300;12.394;2022-12-18T08:46:15;10.60;;;6.37;;
25327;SDS011;13279;51.300;12.394;2022-12-18T08:48:43;11.83;;;5.87;;
25327;SDS011;13279;51.300;12.394;2022-12-18T08:51:11;14.33;;;6.77;;
25327;SDS011;13279;51.300;12.394;2022-12-18T08:53:38;13.90;;;7.20;;
25327;SDS011;13279;51.300;12.394;2022-12-18T08:56:06;14.97;;;6.03;;
25327;SDS011;13279;51.300;12.394;2022-12-18T09:01:44;11.10;;;5.43;;
25327;SDS011;13279;51.300;12.394;2022-12-18T09:07:42;11.03;;;5.27;;
25327;SDS011;13279;51.300;12.394;2022-12-18T09:10:40;7.97;;;4.83;;
25327;SDS011;13279;51.300;12.394;2022-12-18T09:13:37;10.87;;;5.13;;
25327;SDS011;13279;51.300;12.394;2022-12-18T09:16:26;17.30;;;6.00;;
25327;SDS011;13279;51.300;12.394;2022-12-18T09:19:05;9.87;;;5.27;;
25327;SDS011;13279;51.300;12.394;2022-12-18T09:22:05;11.90;;;5.10;;
25327;SDS011;13279;51.300;12.394;2022-12-18T09:24:48;11.40;;;5.27;;
25327;SDS011;13279;51.300;12.394;2022-12-18T09:27:31;11.50;;;5.37;;
25327;SDS011;13279;51.300;12.394;2022-12-18T09:30:13;9.40;;;5.63;;
25327;SDS011;13279;51.300;12.394;2022-12-18T09:33:02;9.60;;;4.97;;
25327;SDS011;13279;51.300;12.394;2022-12-18T09:36:00;7.90;;;4.53;;
25327;SDS011;13279;51.300;12.394;2022-12-18T09:38:47;10.33;;;5.17;;
25327;SDS011;13279;51.300;12.394;2022-12-18T09:41:45;9.13;;;4.53;;
25327;SDS011;13279;51.300;12.394;2022-12-18T09:44:25;8.63;;;4.67;;
25327;SDS011;13279;51.300;12.394;2022-12-18T09:49:44;8.10;;;5.00;;
25327;SDS011;13279;51.300;12.394;2022-12-18T09:52:14;7.53;;;4.67;;
25327;SDS011;13279;51.300;12.394;2022-12-18T09:54:47;10.00;;;4.90;;
25327;SDS011;13279;51.300;12.394;2022-12-18T09:57:26;4.27;;;3.43;;
25327;SDS011;13279;51.300;12.394;2022-12-18T10:00:02;8.70;;;4.83;;
25327;SDS011;13279;51.300;12.394;2022-12-18T10:02:45;7.93;;;4.70;;
25327;SDS011;13279;51.300;12.394;2022-12-18T10:05:45;8.27;;;5.03;;
25327;SDS011;13279;51.300;12.394;2022-12-18T10:08:39;6.73;;;4.10;;
25327;SDS011;13279;51.300;12.394;2022-12-18T10:11:27;5.23;;;4.47;;
25327;SDS011;13279;51.300;12.394;2022-12-18T10:14:22;7.23;;;4.63;;
25327;SDS011;13279;51.300;12.394;2022-12-18T10:17:11;9.90;;;4.70;;
25327;SDS011;13279;51.300;12.394;2022-12-18T10:19:53;11.83;;;5.33;;
25327;SDS011;13279;51.300;12.394;2022-12-18T10:22:46;13.67;;;5.10;;
25327;SDS011;13279;51.300;12.394;2022-12-18T10:25:31;9.67;;;5.40;;
25327;SDS011;13279;51.300;12.394;2022-12-18T10:28:12;7.97;;;4.93;;
25327;SDS011;13279;51.300;12.394;2022-12-18T10:30:51;10.20;;;5.40;;
25327;SDS011;13279;51.300;12.394;2022-12-18T10:33:39;11.93;;;5.57;;
25327;SDS011;13279;51.300;12.394;2022-12-18T10:36:10;13.97;;;5.53;;
25327;SDS011;13279;51.300;12.394;2022-12-18T10:38:44;11.77;;;5.40;;
25327;SDS011;13279;51.300;12.394;2022-12-18T10:41:24;12.03;;;6.17;;
25327;SDS011;13279;51.300;12.394;2022-12-18T10:44:11;13.53;;;6.07;;
25327;SDS011;13279;51.300;12.394;2022-12-18T10:46:45;12.73;;;5.80;;
25327;SDS011;13279;51.300;12.394;2022-12-18T10:49:24;11.07;;;5.90;;
25327;SDS011;13279;51.300;12.394;2022-12-18T10:52:07;10.60;;;6.67;;
25327;SDS011;13279;51.300;12.394;2022-12-18T10:54:49;10.33;;;6.03;;
25327;SDS011;13279;51.300;12.394;2022-12-18T10:57:29;11.83;;;6.33;;
25327;SDS011;13279;51.300;12.394;2022-12-18T11:02:48;11.93;;;5.10;;
25327;SDS011;13279;51.300;12.394;2022-12-18T11:05:23;9.20;;;5.33;;
25327;SDS011;13279;51.300;12.394;2022-12-18T11:07:53;12.77;;;6.00;;
25327;SDS011;13279;51.300;12.394;2022-12-18T11:10:23;9.57;;;5.77;;
25327;SDS011;13279;51.300;12.394;2022-12-18T11:12:55;10.63;;;5.50;;
25327;SDS011;13279;51.300;12.394;2022-12-18T11:15:25;15.20;;;6.30;;
25327;SDS011;13279;51.300;12.394;2022-12-18T11:17:55;11.87;;;5.87;;
25327;SDS011;13279;51.300;12.394;2022-12-18T11:20:27;14.23;;;5.57;;
25327;SDS011;13279;51.300;12.394;2022-12-18T11:22:59;11.57;;;5.83;;
25327;SDS011;13279;51.300;12.394;2022-12-18T11:25:32;13.77;;;6.97;;
25327;SDS011;13279;51.300;12.394;2022-12-18T11:28:00;8.07;;;5.03;;
25327;SDS011;13279;51.300;12.394;2022-12-18T11:30:30;9.83;;;5.80;;
25327;SDS011;13279;51.300;12.394;2022-12-18T11:33:00;18.33;;;6.70;;
25327;SDS011;13279;51.300;12.394;2022-12-18T11:35:34;10.60;;;5.80;;
25327;SDS011;13279;51.300;12.394;2022-12-18T11:38:10;12.60;;;5.80;;
25327;SDS011;13279;51.300;12.394;2022-12-18T11:41:03;10.43;;;5.83;;
25327;SDS011;13279;51.300;12.394;2022-12-18T11:43:35;12.00;;;6.17;;
25327;SDS011;13279;51.300;12.394;2022-12-18T11:46:07;10.90;;;6.33;;
25327;SDS011;13279;51.300;12.394;2022-12-18T11:48:41;14.37;;;6.80;;
25327;SDS011;13279;51.300;12.394;2022-12-18T11:51:14;12.07;;;6.23;;
25327;SDS011;13279;51.300;12.394;2022-12-18T11:53:44;12.30;;;6.47;;
25327;SDS011;13279;51.300;12.394;2022-12-18T11:56:19;13.60;;;6.30;;
25327;SDS011;13279;51.300;12.394;2022-12-18T11:58:59;9.50;;;5.70;;
25327;SDS011;13279;51.300;12.394;2022-12-18T12:01:38;13.47;;;6.53;;
25327;SDS011;13279;51.300;12.394;2022-12-18T12:07:29;20.67;;;6.93;;
25327;SDS011;13279;51.300;12.394;2022-12-18T12:10:07;19.03;;;6.13;;
25327;SDS011;13279;51.300;12.394;2022-12-18T12:12:51;12.87;;;6.53;;
25327;SDS011;13279;51.300;12.394;2022-12-18T12:15:33;13.37;;;6.23;;
25327;SDS011;13279;51.300;12.394;2022-12-18T12:18:13;16.60;;;6.60;;
25327;SDS011;13279;51.300;12.394;2022-12-18T12:20:53;10.03;;;5.77;;
25327;SDS011;13279;51.300;12.394;2022-12-18T12:23:31;14.93;;;6.30;;
25327;SDS011;13279;51.300;12.394;2022-12-18T12:26:06;11.57;;;5.87;;
25327;SDS011;13279;51.300;12.394;2022-12-18T12:28:47;10.43;;;6.73;;
25327;SDS011;13279;51.300;12.394;2022-12-18T12:34:26;9.73;;;6.50;;
25327;SDS011;13279;51.300;12.394;2022-12-18T12:40:49;11.03;;;6.23;;
25327;SDS011;13279;51.300;12.394;2022-12-18T12:43:24;13.00;;;6.40;;
25327;SDS011;13279;51.300;12.394;2022-12-18T12:46:00;10.27;;;5.90;;
25327;SDS011;13279;51.300;12.394;2022-12-18T12:48:33;12.97;;;6.20;;
25327;SDS011;13279;51.300;12.394;2022-12-18T12:51:06;12.83;;;6.20;;
25327;SDS011;13279;51.300;12.394;2022-12-18T12:53:37;11.07;;;5.77;;
25327;SDS011;13279;51.300;12.394;2022-12-18T12:56:06;10.83;;;5.80;;
25327;SDS011;13279;51.300;12.394;2022-12-18T12:58:41;19.90;;;6.47;;
25327;SDS011;13279;51.300;12.394;2022-12-18T13:01:34;11.97;;;6.27;;
25327;SDS011;13279;51.300;12.394;2022-12-18T13:04:12;12.20;;;6.83;;
25327;SDS011;13279;51.300;12.394;2022-12-18T13:06:49;24.53;;;8.00;;
25327;SDS011;13279;51.300;12.394;2022-12-18T13:09:23;15.13;;;8.50;;
25327;SDS011;13279;51.300;12.394;2022-12-18T13:11:52;21.43;;;8.03;;
25327;SDS011;13279;51.300;12.394;2022-12-18T13:14:46;16.97;;;8.33;;
25327;SDS011;13279;51.300;12.394;2022-12-18T13:17:21;17.27;;;8.43;;
25327;SDS011;13279;51.300;12.394;2022-12-18T13:20:03;19.13;;;7.97;;
25327;SDS011;13279;51.300;12.394;2022-12-18T13:22:40;22.90;;;10.13;;
25327;SDS011;13279;51.300;12.394;2022-12-18T13:28:16;17.93;;;8.47;;
25327;SDS011;13279;51.300;12.394;2022-12-18T13:30:48;15.73;;;9.07;;
25327;SDS011;13279;51.300;12.394;2022-12-18T13:36:18;18.00;;;8.30;;
25327;SDS011;13279;51.300;12.394;2022-12-18T13:39:38;16.80;;;7.87;;
25327;SDS011;13279;51.300;12.394;2022-12-18T13:45:43;17.43;;;7.80;;
25327;SDS011;13279;51.300;12.394;2022-12-18T13:48:16;14.53;;;7.70;;
25327;SDS011;13279;51.300;12.394;2022-12-18T13:50:50;15.77;;;7.97;;
25327;SDS011;13279;51.300;12.394;2022-12-18T13:53:26;18.63;;;8.17;;
25327;SDS011;13279;51.300;12.394;2022-12-18T13:55:59;17.60;;;7.77;;
25327;SDS011;13279;51.300;12.394;2022-12-18T13:58:29;17.77;;;8.20;;
25327;SDS011;13279;51.300;12.394;2022-12-18T14:01:04;18.93;;;8.53;;
25327;SDS011;13279;51.300;12.394;2022-12-18T14:03:31;19.03;;;8.80;;
25327;SDS011;13279;51.300;12.394;2022-12-18T14:06:01;25.60;;;10.00;;
25327;SDS011;13279;51.300;12.394;2022-12-18T14:08:33;20.27;;;9.37;;
25327;SDS011;13279;51.300;12.394;2022-12-18T14:11:04;20.50;;;9.80;;
25327;SDS011;13279;51.300;12.394;2022-12-18T14:13:33;17.90;;;8.47;;
25327;SDS011;13279;51.300;12.394;2022-12-18T14:16:07;20.63;;;9.77;;
25327;SDS011;13279;51.300;12.394;2022-12-18T14:18:42;24.27;;;10.43;;
25327;SDS011;13279;51.300;12.394;2022-12-18T14:21:20;23.93;;;10.37;;
25327;SDS011;13279;51.300;12.394;2022-12-18T14:24:02;20.23;;;10.17;;
25327;SDS011;13279;51.300;12.394;2022-12-18T14:26:31;27.37;;;11.57;;
25327;SDS011;13279;51.300;12.394;2022-12-18T14:29:00;27.60;;;11.17;;
25327;SDS011;13279;51.300;12.394;2022-12-18T14:31:44;25.20;;;11.10;;
25327;SDS011;13279;51.300;12.394;2022-12-18T14:34:14;27.07;;;11.80;;
25327;SDS011;13279;51.300;12.394;2022-12-18T14:37:23;33.30;;;12.60;;
25327;SDS011;13279;51.300;12.394;2022-12-18T14:40:26;32.47;;;13.50;;
25327;SDS011;13279;51.300;12.394;2022-12-18T14:43:28;26.97;;;11.50;;
25327;SDS011;13279;51.300;12.394;2022-12-18T14:49:31;26.43;;;11.90;;
25327;SDS011;13279;51.300;12.394;2022-12-18T14:52:20;32.40;;;13.20;;
25327;SDS011;13279;51.300;12.394;2022-12-18T14:55:02;39.23;;;15.57;;
25327;SDS011;13279;51.300;12.394;2022-12-18T14:57:41;31.30;;;13.87;;
25327;SDS011;13279;51.300;12.394;2022-12-18T15:00:36;29.57;;;13.63;;
25327;SDS011;13279;51.300;12.394;2022-12-18T15:03:33;29.93;;;13.03;;
25327;SDS011;13279;51.300;12.394;2022-12-18T15:09:36;36.93;;;13.40;;
25327;SDS011;13279;51.300;12.394;2022-12-18T15:12:37;34.30;;;12.00;;
25327;SDS011;13279;51.300;12.394;2022-12-18T15:15:48;38.33;;;15.37;;
25327;SDS011;13279;51.300;12.394;2022-12-18T15:18:41;39.23;;;16.63;;
25327;SDS011;13279;51.300;12.394;2022-12-18T15:21:28;26.40;;;13.10;;
25327;SDS011;13279;51.300;12.394;2022-12-18T15:24:16;30.07;;;13.70;;
25327;SDS011;13279;51.300;12.394;2022-12-18T15:27:23;29.43;;;12.23;;
25327;SDS011;13279;51.300;12.394;2022-12-18T15:33:24;32.83;;;13.83;;
25327;SDS011;13279;51.300;12.394;2022-12-18T15:39:29;28.93;;;11.47;;
25327;SDS011;13279;51.300;12.394;2022-12-18T15:45:47;33.00;;;13.27;;
25327;SDS011;13279;51.300;12.394;2022-12-18T15:51:45;31.80;;;14.33;;